createdAt,value
2018-11-28T00:00:10.206Z,10.2
2018-11-28T00:00:22.599Z,10.2
2018-11-28T00:00:34.993Z,10.2
2018-11-28T00:00:47.353Z,10.2
2018-11-28T00:00:59.712Z,10.2
2018-11-28T00:01:12.080Z,10.2
2018-11-28T00:01:24.441Z,10.2
2018-11-28T00:01:36.811Z,10.2
2018-11-28T00:01:49.184Z,10.2
2018-11-28T00:02:01.566Z,10.2
2018-11-28T00:02:13.920Z,10.2
2018-11-28T00:02:26.346Z,10.2
2018-11-28T00:02:38.839Z,10.2
2018-11-28T00:02:51.207Z,10.2
2018-11-28T00:03:03.605Z,10.2
2018-11-28T00:03:16.135Z,10.2
2018-11-28T00:03:28.659Z,10.2
2018-11-28T00:03:41.026Z,10.2
2018-11-28T00:03:53.382Z,10.2
2018-11-28T00:04:05.734Z,10.2
2018-11-28T00:04:18.173Z,10.2
2018-11-28T00:04:30.525Z,10.2
2018-11-28T00:04:42.885Z,10.2
2018-11-28T00:04:55.268Z,10.2
2018-11-28T00:05:07.644Z,10.2
2018-11-28T00:05:20.315Z,10.2
2018-11-28T00:05:32.688Z,4.97
2018-11-28T00:05:45.059Z,4.97
2018-11-28T00:05:57.423Z,4.97
2018-11-28T00:06:09.771Z,4.97
2018-11-28T00:06:22.122Z,4.97
2018-11-28T00:06:34.486Z,4.97
2018-11-28T00:06:46.839Z,4.97
2018-11-28T00:06:59.202Z,4.97
2018-11-28T00:07:11.549Z,4.97
2018-11-28T00:07:23.903Z,4.97
2018-11-28T00:07:36.238Z,4.97
2018-11-28T00:07:48.609Z,4.97
2018-11-28T00:08:01.025Z,4.97
2018-11-28T00:08:13.428Z,4.97
2018-11-28T00:08:25.812Z,4.97
2018-11-28T00:08:38.219Z,4.97
2018-11-28T00:08:50.573Z,4.97
2018-11-28T00:09:02.930Z,4.97
2018-11-28T00:09:15.301Z,4.97
2018-11-28T00:09:28.436Z,4.97
2018-11-28T00:09:40.816Z,4.97
2018-11-28T00:09:53.162Z,4.97
2018-11-28T00:10:05.530Z,4.97
2018-11-28T00:10:17.975Z,4.97
2018-11-28T00:10:30.338Z,4.97
2018-11-28T00:10:42.770Z,4.97
2018-11-28T00:10:55.125Z,4.97
2018-11-28T00:11:07.537Z,4.97
2018-11-28T00:11:19.903Z,4.97
2018-11-28T00:11:32.445Z,4.97
2018-11-28T00:11:44.818Z,4.97
2018-11-28T00:11:57.191Z,4.97
2018-11-28T00:12:09.558Z,4.97
2018-11-28T00:12:21.924Z,4.97
2018-11-28T00:12:34.339Z,4.97
2018-11-28T00:12:46.763Z,4.97
2018-11-28T00:12:59.146Z,4.97
2018-11-28T00:13:11.537Z,4.97
2018-11-28T00:13:23.950Z,4.97
2018-11-28T00:13:36.316Z,4.97
2018-11-28T00:13:48.667Z,4.97
2018-11-28T00:14:01.039Z,4.97
2018-11-28T00:14:13.420Z,4.97
2018-11-28T00:14:25.769Z,4.97
2018-11-28T00:14:38.121Z,4.97
2018-11-28T00:14:50.468Z,4.97
2018-11-28T00:15:02.839Z,4.97
2018-11-28T00:15:15.191Z,4.97
2018-11-28T00:15:27.548Z,4.97
2018-11-28T00:15:39.913Z,7.69
2018-11-28T00:15:52.280Z,7.69
2018-11-28T00:16:04.632Z,7.69
2018-11-28T00:16:16.987Z,7.69
2018-11-28T00:16:29.357Z,7.69
2018-11-28T00:16:42.118Z,7.69
2018-11-28T00:16:54.585Z,7.69
2018-11-28T00:17:06.931Z,7.69
2018-11-28T00:17:19.296Z,7.69
2018-11-28T00:17:31.664Z,7.69
2018-11-28T00:17:44.029Z,7.69
2018-11-28T00:17:56.397Z,7.69
2018-11-28T00:18:08.749Z,7.69
2018-11-28T00:18:21.096Z,7.69
2018-11-28T00:18:33.460Z,7.69
2018-11-28T00:18:45.902Z,7.69
2018-11-28T00:18:58.279Z,7.69
2018-11-28T00:19:10.671Z,7.69
2018-11-28T00:19:23.047Z,7.69
2018-11-28T00:19:35.417Z,7.69
2018-11-28T00:19:47.799Z,7.69
2018-11-28T00:20:00.169Z,7.69
2018-11-28T00:20:12.542Z,7.69
2018-11-28T00:20:25.001Z,7.69
2018-11-28T00:20:37.504Z,7.69
2018-11-28T00:20:49.916Z,7.69
2018-11-28T00:21:02.257Z,7.69
2018-11-28T00:21:14.600Z,7.69
2018-11-28T00:21:27.946Z,7.69
2018-11-28T00:21:40.304Z,7.69
2018-11-28T00:21:52.656Z,7.69
2018-11-28T00:22:05.007Z,7.69
2018-11-28T00:22:17.465Z,7.69
2018-11-28T00:22:30.129Z,7.69
2018-11-28T00:22:42.491Z,7.69
2018-11-28T00:22:54.869Z,7.69
2018-11-28T00:23:07.222Z,7.69
2018-11-28T00:23:19.927Z,7.69
2018-11-28T00:23:32.281Z,7.69
2018-11-28T00:23:44.657Z,7.69
2018-11-28T00:23:57.029Z,7.69
2018-11-28T00:24:09.456Z,7.69
2018-11-28T00:24:21.862Z,7.69
2018-11-28T00:24:34.237Z,7.69
2018-11-28T00:24:46.671Z,7.69
2018-11-28T00:24:59.086Z,7.69
2018-11-28T00:25:11.461Z,7.69
2018-11-28T00:25:23.848Z,7.69
2018-11-28T00:25:36.209Z,6.37
2018-11-28T00:25:48.560Z,6.37
2018-11-28T00:26:06.650Z,6.37
2018-11-28T00:26:19.003Z,6.37
2018-11-28T00:26:31.352Z,6.37
2018-11-28T00:26:43.708Z,6.37
2018-11-28T00:26:56.132Z,6.37
2018-11-28T00:27:08.486Z,6.37
2018-11-28T00:27:20.864Z,6.37
2018-11-28T00:27:33.237Z,6.37
2018-11-28T00:27:45.631Z,6.37
2018-11-28T00:27:57.995Z,6.37
2018-11-28T00:28:10.376Z,6.37
2018-11-28T00:28:22.823Z,6.37
2018-11-28T00:28:35.196Z,6.37
2018-11-28T00:28:47.558Z,6.37
2018-11-28T00:29:00.102Z,6.37
2018-11-28T00:29:12.542Z,6.37
2018-11-28T00:29:24.899Z,6.37
2018-11-28T00:29:37.258Z,6.37
2018-11-28T00:29:49.621Z,6.37
2018-11-28T00:30:02.003Z,6.37
2018-11-28T00:30:14.396Z,6.37
2018-11-28T00:30:26.825Z,6.37
2018-11-28T00:30:39.184Z,6.37
2018-11-28T00:30:51.595Z,6.37
2018-11-28T00:31:03.946Z,6.37
2018-11-28T00:31:16.296Z,6.37
2018-11-28T00:31:28.646Z,6.37
2018-11-28T00:31:41.006Z,6.37
2018-11-28T00:31:53.365Z,6.37
2018-11-28T00:32:05.726Z,6.37
2018-11-28T00:32:19.157Z,6.37
2018-11-28T00:32:31.505Z,6.37
2018-11-28T00:32:43.950Z,6.37
2018-11-28T00:32:56.358Z,6.37
2018-11-28T00:33:08.768Z,6.37
2018-11-28T00:33:21.228Z,6.37
2018-11-28T00:33:33.753Z,6.37
2018-11-28T00:33:46.218Z,6.37
2018-11-28T00:33:58.580Z,6.37
2018-11-28T00:34:10.941Z,6.37
2018-11-28T00:34:23.295Z,6.37
2018-11-28T00:34:35.680Z,6.37
2018-11-28T00:34:48.090Z,6.37
2018-11-28T00:35:00.486Z,6.37
2018-11-28T00:35:12.836Z,6.37
2018-11-28T00:35:25.211Z,6.37
2018-11-28T00:35:37.585Z,7.83
2018-11-28T00:35:49.954Z,7.83
2018-11-28T00:36:02.310Z,7.83
2018-11-28T00:36:14.672Z,7.83
2018-11-28T00:36:27.016Z,7.83
2018-11-28T00:36:39.365Z,7.83
2018-11-28T00:36:51.711Z,7.83
2018-11-28T00:37:04.080Z,7.83
2018-11-28T00:37:16.428Z,7.83
2018-11-28T00:37:28.813Z,7.83
2018-11-28T00:37:41.169Z,7.83
2018-11-28T00:37:53.546Z,7.83
2018-11-28T00:38:05.891Z,7.83
2018-11-28T00:38:18.240Z,7.83
2018-11-28T00:38:30.699Z,7.83
2018-11-28T00:38:43.048Z,7.83
2018-11-28T00:38:55.417Z,7.83
2018-11-28T00:39:07.774Z,7.83
2018-11-28T00:39:20.124Z,7.83
2018-11-28T00:39:32.534Z,7.83
2018-11-28T00:39:44.904Z,7.83
2018-11-28T00:39:57.270Z,7.83
2018-11-28T00:40:09.823Z,7.83
2018-11-28T00:40:22.257Z,7.83
2018-11-28T00:40:34.616Z,7.83
2018-11-28T00:40:46.970Z,7.83
2018-11-28T00:40:59.327Z,7.83
2018-11-28T00:41:11.947Z,7.83
2018-11-28T00:41:24.291Z,7.83
2018-11-28T00:41:36.645Z,7.83
2018-11-28T00:41:49.272Z,7.83
2018-11-28T00:42:01.622Z,7.83
2018-11-28T00:42:13.978Z,7.83
2018-11-28T00:42:26.328Z,7.83
2018-11-28T00:42:38.668Z,7.83
2018-11-28T00:42:51.024Z,7.83
2018-11-28T00:43:03.382Z,7.83
2018-11-28T00:43:15.729Z,7.83
2018-11-28T00:43:28.084Z,7.83
2018-11-28T00:43:40.413Z,7.83
2018-11-28T00:43:52.782Z,7.83
2018-11-28T00:44:05.147Z,7.83
2018-11-28T00:44:17.658Z,7.83
2018-11-28T00:44:30.007Z,7.83
2018-11-28T00:44:42.386Z,7.83
2018-11-28T00:44:54.736Z,7.83
2018-11-28T00:45:07.106Z,7.83
2018-11-28T00:45:19.467Z,7.83
2018-11-28T00:45:31.857Z,7.54
2018-11-28T00:45:44.378Z,7.54
2018-11-28T00:45:56.871Z,7.54
2018-11-28T00:46:09.235Z,7.54
2018-11-28T00:46:21.925Z,7.54
2018-11-28T00:46:34.297Z,7.54
2018-11-28T00:46:46.666Z,7.54
2018-11-28T00:46:59.079Z,7.54
2018-11-28T00:47:11.457Z,7.54
2018-11-28T00:47:23.811Z,7.54
2018-11-28T00:47:36.167Z,7.54
2018-11-28T00:47:48.527Z,7.54
2018-11-28T00:48:00.923Z,7.54
2018-11-28T00:48:13.272Z,7.54
2018-11-28T00:48:25.630Z,7.54
2018-11-28T00:48:37.985Z,7.54
2018-11-28T00:48:50.352Z,7.54
2018-11-28T00:49:02.715Z,7.54
2018-11-28T00:49:15.073Z,7.54
2018-11-28T00:49:27.428Z,7.54
2018-11-28T00:49:39.795Z,7.54
2018-11-28T00:49:52.148Z,7.54
2018-11-28T00:50:04.938Z,7.54
2018-11-28T00:50:17.321Z,7.54
2018-11-28T00:50:29.706Z,7.54
2018-11-28T00:50:42.058Z,7.54
2018-11-28T00:50:54.500Z,7.54
2018-11-28T00:51:06.848Z,7.54
2018-11-28T00:51:19.211Z,7.54
2018-11-28T00:51:31.557Z,7.54
2018-11-28T00:51:43.922Z,7.54
2018-11-28T00:51:56.411Z,7.54
2018-11-28T00:52:08.765Z,7.54
2018-11-28T00:52:21.111Z,7.54
2018-11-28T00:52:33.485Z,7.54
2018-11-28T00:52:45.838Z,7.54
2018-11-28T00:52:58.217Z,7.54
2018-11-28T00:53:10.576Z,7.54
2018-11-28T00:53:22.939Z,7.54
2018-11-28T00:53:35.288Z,7.54
2018-11-28T00:53:47.649Z,7.54
2018-11-28T00:54:00.007Z,7.54
2018-11-28T00:54:12.340Z,7.54
2018-11-28T00:54:24.686Z,7.54
2018-11-28T00:54:37.114Z,7.54
2018-11-28T00:54:49.480Z,7.54
2018-11-28T00:55:01.851Z,7.54
2018-11-28T00:55:14.225Z,7.54
2018-11-28T00:55:26.706Z,7.54
2018-11-28T00:55:39.062Z,7.51
2018-11-28T00:55:56.436Z,7.51
2018-11-28T00:56:08.847Z,7.51
2018-11-28T00:56:21.213Z,7.51
2018-11-28T00:56:33.565Z,7.51
2018-11-28T00:56:46.054Z,7.51
2018-11-28T00:56:58.483Z,7.51
2018-11-28T00:57:10.845Z,7.51
2018-11-28T00:57:23.198Z,7.51
2018-11-28T00:57:35.551Z,7.51
2018-11-28T00:57:47.915Z,7.51
2018-11-28T00:58:00.317Z,7.51
2018-11-28T00:58:12.666Z,7.51
2018-11-28T00:58:25.006Z,7.51
2018-11-28T00:58:37.556Z,7.51
2018-11-28T00:58:49.923Z,7.51
2018-11-28T00:59:02.268Z,7.51
2018-11-28T00:59:14.884Z,7.51
2018-11-28T00:59:28.662Z,7.51
2018-11-28T00:59:41.029Z,7.51
2018-11-28T00:59:53.404Z,7.51
2018-11-28T01:00:05.791Z,7.51
2018-11-28T01:00:18.188Z,7.51
2018-11-28T01:00:30.679Z,7.51
2018-11-28T01:00:43.033Z,7.51
2018-11-28T01:00:55.398Z,7.51
2018-11-28T01:01:07.787Z,7.51
2018-11-28T01:01:20.160Z,7.51
2018-11-28T01:01:32.529Z,7.51
2018-11-28T01:01:45.021Z,7.51
2018-11-28T01:01:57.382Z,7.51
2018-11-28T01:02:09.768Z,7.51
2018-11-28T01:02:22.136Z,7.51
2018-11-28T01:02:34.491Z,7.51
2018-11-28T01:02:46.842Z,7.51
2018-11-28T01:02:59.225Z,7.51
2018-11-28T01:03:11.594Z,7.51
2018-11-28T01:03:24.081Z,7.51
2018-11-28T01:03:36.585Z,7.51
2018-11-28T01:03:48.969Z,7.51
2018-11-28T01:04:01.323Z,7.51
2018-11-28T01:04:13.764Z,7.51
2018-11-28T01:04:26.114Z,7.51
2018-11-28T01:04:38.468Z,7.51
2018-11-28T01:04:50.866Z,7.51
2018-11-28T01:05:03.226Z,7.51
2018-11-28T01:05:15.729Z,7.51
2018-11-28T01:05:28.110Z,7.51
2018-11-28T01:05:40.470Z,9.23
2018-11-28T01:05:52.883Z,9.23
2018-11-28T01:06:05.249Z,9.23
2018-11-28T01:06:17.618Z,9.23
2018-11-28T01:06:29.968Z,9.23
2018-11-28T01:06:42.322Z,9.23
2018-11-28T01:06:54.676Z,9.23
2018-11-28T01:07:07.095Z,9.23
2018-11-28T01:07:19.454Z,9.23
2018-11-28T01:07:31.812Z,9.23
2018-11-28T01:07:44.224Z,9.23
2018-11-28T01:07:56.583Z,9.23
2018-11-28T01:08:08.965Z,9.23
2018-11-28T01:08:21.354Z,9.23
2018-11-28T01:08:33.691Z,9.23
2018-11-28T01:08:46.036Z,9.23
2018-11-28T01:08:58.441Z,9.23
2018-11-28T01:09:10.805Z,9.23
2018-11-28T01:09:23.160Z,9.23
2018-11-28T01:09:35.513Z,9.23
2018-11-28T01:09:47.851Z,9.23
2018-11-28T01:10:00.189Z,9.23
2018-11-28T01:10:12.563Z,9.23
2018-11-28T01:10:24.936Z,9.23
2018-11-28T01:10:37.279Z,9.23
2018-11-28T01:10:49.619Z,9.23
2018-11-28T01:11:01.982Z,9.23
2018-11-28T01:11:14.329Z,9.23
2018-11-28T01:11:26.706Z,9.23
2018-11-28T01:11:39.221Z,9.23
2018-11-28T01:11:51.624Z,9.23
2018-11-28T01:12:03.967Z,9.23
2018-11-28T01:12:16.312Z,9.23
2018-11-28T01:12:28.658Z,9.23
2018-11-28T01:12:41.067Z,9.23
2018-11-28T01:12:53.425Z,9.23
2018-11-28T01:13:05.885Z,9.23
2018-11-28T01:13:18.229Z,9.23
2018-11-28T01:13:30.607Z,9.23
2018-11-28T01:13:42.975Z,9.23
2018-11-28T01:13:55.483Z,9.23
2018-11-28T01:14:07.825Z,9.23
2018-11-28T01:14:20.162Z,9.23
2018-11-28T01:14:32.533Z,9.23
2018-11-28T01:14:44.878Z,9.23
2018-11-28T01:14:57.217Z,9.23
2018-11-28T01:15:09.577Z,9.23
2018-11-28T01:15:21.933Z,9.23
2018-11-28T01:15:34.299Z,6.71
2018-11-28T01:15:46.643Z,6.71
2018-11-28T01:15:59.015Z,6.71
2018-11-28T01:16:11.377Z,6.71
2018-11-28T01:16:23.730Z,6.71
2018-11-28T01:16:36.087Z,6.71
2018-11-28T01:16:48.634Z,6.71
2018-11-28T01:17:01.005Z,6.71
2018-11-28T01:17:13.352Z,6.71
2018-11-28T01:17:25.686Z,6.71
2018-11-28T01:17:38.105Z,6.71
2018-11-28T01:17:50.451Z,6.71
2018-11-28T01:18:02.850Z,6.71
2018-11-28T01:18:15.327Z,6.71
2018-11-28T01:18:27.734Z,6.71
2018-11-28T01:18:40.093Z,6.71
2018-11-28T01:18:52.457Z,6.71
2018-11-28T01:19:04.811Z,6.71
2018-11-28T01:19:17.160Z,6.71
2018-11-28T01:19:29.513Z,6.71
2018-11-28T01:19:41.881Z,6.71
2018-11-28T01:19:54.234Z,6.71
2018-11-28T01:20:06.606Z,6.71
2018-11-28T01:20:18.976Z,6.71
2018-11-28T01:20:31.518Z,6.71
2018-11-28T01:20:43.895Z,6.71
2018-11-28T01:20:56.255Z,6.71
2018-11-28T01:21:08.611Z,6.71
2018-11-28T01:21:20.976Z,6.71
2018-11-28T01:21:33.329Z,6.71
2018-11-28T01:21:45.674Z,6.71
2018-11-28T01:21:58.020Z,6.71
2018-11-28T01:22:10.357Z,6.71
2018-11-28T01:22:22.846Z,6.71
2018-11-28T01:22:35.201Z,6.71
2018-11-28T01:22:47.588Z,6.71
2018-11-28T01:22:59.970Z,6.71
2018-11-28T01:23:12.429Z,6.71
2018-11-28T01:23:24.782Z,6.71
2018-11-28T01:23:37.169Z,6.71
2018-11-28T01:23:49.538Z,6.71
2018-11-28T01:24:01.897Z,6.71
2018-11-28T01:24:14.251Z,6.71
2018-11-28T01:24:26.610Z,6.71
2018-11-28T01:24:39.015Z,6.71
2018-11-28T01:24:51.428Z,6.71
2018-11-28T01:25:03.820Z,6.71
2018-11-28T01:25:16.208Z,6.71
2018-11-28T01:25:28.646Z,6.71
2018-11-28T01:25:41.013Z,8.55
2018-11-28T01:25:53.508Z,8.55
2018-11-28T01:26:06.455Z,8.55
2018-11-28T01:26:18.830Z,8.55
2018-11-28T01:26:31.167Z,8.55
2018-11-28T01:26:43.527Z,8.55
2018-11-28T01:26:55.874Z,8.55
2018-11-28T01:27:08.226Z,8.55
2018-11-28T01:27:20.747Z,8.55
2018-11-28T01:27:33.113Z,8.55
2018-11-28T01:27:45.460Z,8.55
2018-11-28T01:27:57.845Z,8.55
2018-11-28T01:28:10.209Z,8.55
2018-11-28T01:28:22.570Z,8.55
2018-11-28T01:28:34.928Z,8.55
2018-11-28T01:28:53.192Z,8.55
2018-11-28T01:29:05.539Z,8.55
2018-11-28T01:29:17.901Z,8.55
2018-11-28T01:29:30.272Z,8.55
2018-11-28T01:29:42.786Z,8.55
2018-11-28T01:29:55.142Z,8.55
2018-11-28T01:30:07.493Z,8.55
2018-11-28T01:30:19.918Z,8.55
2018-11-28T01:30:32.291Z,8.55
2018-11-28T01:30:44.800Z,8.55
2018-11-28T01:30:57.174Z,8.55
2018-11-28T01:31:09.540Z,8.55
2018-11-28T01:31:21.911Z,8.55
2018-11-28T01:31:34.268Z,8.55
2018-11-28T01:31:46.610Z,8.55
2018-11-28T01:31:58.963Z,8.55
2018-11-28T01:32:11.308Z,8.55
2018-11-28T01:32:23.661Z,8.55
2018-11-28T01:32:36.005Z,8.55
2018-11-28T01:32:48.444Z,8.55
2018-11-28T01:33:00.863Z,8.55
2018-11-28T01:33:13.224Z,8.55
2018-11-28T01:33:25.680Z,8.55
2018-11-28T01:33:38.156Z,8.55
2018-11-28T01:33:50.504Z,8.55
2018-11-28T01:34:02.860Z,8.55
2018-11-28T01:34:15.244Z,8.55
2018-11-28T01:34:27.618Z,8.55
2018-11-28T01:34:39.965Z,8.55
2018-11-28T01:34:52.323Z,8.55
2018-11-28T01:35:04.727Z,8.55
2018-11-28T01:35:17.091Z,8.55
2018-11-28T01:35:29.470Z,8.55
2018-11-28T01:35:41.837Z,8.07
2018-11-28T01:35:54.205Z,8.07
2018-11-28T01:36:06.535Z,8.07
2018-11-28T01:36:18.904Z,8.07
2018-11-28T01:36:31.256Z,8.07
2018-11-28T01:36:43.631Z,8.07
2018-11-28T01:36:56.000Z,8.07
2018-11-28T01:37:08.380Z,8.07
2018-11-28T01:37:20.735Z,8.07
2018-11-28T01:37:33.088Z,8.07
2018-11-28T01:37:45.519Z,8.07
2018-11-28T01:37:57.940Z,8.07
2018-11-28T01:38:10.321Z,8.07
2018-11-28T01:38:22.730Z,8.07
2018-11-28T01:38:35.091Z,8.07
2018-11-28T01:38:47.441Z,8.07
2018-11-28T01:38:59.802Z,8.07
2018-11-28T01:39:12.180Z,8.07
2018-11-28T01:39:24.773Z,8.07
2018-11-28T01:39:37.134Z,8.07
2018-11-28T01:39:49.491Z,8.07
2018-11-28T01:40:01.839Z,8.07
2018-11-28T01:40:14.206Z,8.07
2018-11-28T01:40:26.630Z,8.07
2018-11-28T01:40:38.983Z,8.07
2018-11-28T01:40:51.497Z,8.07
2018-11-28T01:41:04.011Z,8.07
2018-11-28T01:41:16.475Z,8.07
2018-11-28T01:41:28.836Z,8.07
2018-11-28T01:41:41.198Z,8.07
2018-11-28T01:41:53.812Z,8.07
2018-11-28T01:42:06.156Z,8.07
2018-11-28T01:42:18.520Z,8.07
2018-11-28T01:42:30.870Z,8.07
2018-11-28T01:42:43.261Z,8.07
2018-11-28T01:42:55.642Z,8.07
2018-11-28T01:43:08.401Z,8.07
2018-11-28T01:43:20.763Z,8.07
2018-11-28T01:43:33.129Z,8.07
2018-11-28T01:43:45.483Z,8.07
2018-11-28T01:43:57.839Z,8.07
2018-11-28T01:44:10.210Z,8.07
2018-11-28T01:44:22.723Z,8.07
2018-11-28T01:44:35.068Z,8.07
2018-11-28T01:44:47.436Z,8.07
2018-11-28T01:44:59.815Z,8.07
2018-11-28T01:45:12.167Z,8.07
2018-11-28T01:45:24.621Z,8.07
2018-11-28T01:45:37.044Z,8.5
2018-11-28T01:45:49.402Z,8.5
2018-11-28T01:46:01.766Z,8.5
2018-11-28T01:46:14.163Z,8.5
2018-11-28T01:46:26.508Z,8.5
2018-11-28T01:46:38.855Z,8.5
2018-11-28T01:46:51.227Z,8.5
2018-11-28T01:47:03.571Z,8.5
2018-11-28T01:47:15.920Z,8.5
2018-11-28T01:47:28.289Z,8.5
2018-11-28T01:47:40.652Z,8.5
2018-11-28T01:47:53.015Z,8.5
2018-11-28T01:48:05.557Z,8.5
2018-11-28T01:48:17.910Z,8.5
2018-11-28T01:48:30.273Z,8.5
2018-11-28T01:48:42.657Z,8.5
2018-11-28T01:48:55.022Z,8.5
2018-11-28T01:49:07.391Z,8.5
2018-11-28T01:49:19.766Z,8.5
2018-11-28T01:49:32.140Z,8.5
2018-11-28T01:49:44.511Z,8.5
2018-11-28T01:49:57.054Z,8.5
2018-11-28T01:50:10.763Z,8.5
2018-11-28T01:50:23.128Z,8.5
2018-11-28T01:50:35.498Z,8.5
2018-11-28T01:50:47.847Z,8.5
2018-11-28T01:51:00.296Z,8.5
2018-11-28T01:51:12.644Z,8.5
2018-11-28T01:51:25.015Z,8.5
2018-11-28T01:51:37.405Z,8.5
2018-11-28T01:51:49.766Z,8.5
2018-11-28T01:52:02.384Z,8.5
2018-11-28T01:52:14.755Z,8.5
2018-11-28T01:52:27.126Z,8.5
2018-11-28T01:52:39.494Z,8.5
2018-11-28T01:52:51.883Z,8.5
2018-11-28T01:53:04.235Z,8.5
2018-11-28T01:53:16.648Z,8.5
2018-11-28T01:53:29.017Z,8.5
2018-11-28T01:53:41.394Z,8.5
2018-11-28T01:53:53.764Z,8.5
2018-11-28T01:54:06.111Z,8.5
2018-11-28T01:54:18.491Z,8.5
2018-11-28T01:54:30.843Z,8.5
2018-11-28T01:54:43.207Z,8.5
2018-11-28T01:54:55.558Z,8.5
2018-11-28T01:55:07.906Z,8.5
2018-11-28T01:55:20.256Z,8.5
2018-11-28T01:55:32.749Z,8.5
2018-11-28T01:55:45.112Z,7.71
2018-11-28T01:55:57.470Z,7.71
2018-11-28T01:56:09.833Z,7.71
2018-11-28T01:56:22.192Z,7.71
2018-11-28T01:56:34.549Z,7.71
2018-11-28T01:56:47.086Z,7.71
2018-11-28T01:56:59.513Z,7.71
2018-11-28T01:57:11.865Z,7.71
2018-11-28T01:57:24.233Z,7.71
2018-11-28T01:57:36.590Z,7.71
2018-11-28T01:57:48.962Z,7.71
2018-11-28T01:58:01.334Z,7.71
2018-11-28T01:58:13.677Z,7.71
2018-11-28T01:58:26.034Z,7.71
2018-11-28T01:58:38.796Z,7.71
2018-11-28T01:58:51.155Z,7.71
2018-11-28T01:59:03.672Z,7.71
2018-11-28T01:59:16.020Z,7.71
2018-11-28T01:59:28.374Z,7.71
2018-11-28T01:59:40.728Z,7.71
2018-11-28T01:59:53.109Z,7.71
2018-11-28T02:00:05.513Z,7.71
2018-11-28T02:00:17.941Z,7.71
2018-11-28T02:00:30.361Z,7.71
2018-11-28T02:00:42.735Z,7.71
2018-11-28T02:00:55.133Z,7.71
2018-11-28T02:01:07.500Z,7.71
2018-11-28T02:01:19.852Z,7.71
2018-11-28T02:01:32.264Z,7.71
2018-11-28T02:01:44.618Z,7.71
2018-11-28T02:01:56.974Z,7.71
2018-11-28T02:02:09.316Z,7.71
2018-11-28T02:02:21.683Z,7.71
2018-11-28T02:02:34.056Z,7.71
2018-11-28T02:02:46.439Z,7.71
2018-11-28T02:02:58.826Z,7.71
2018-11-28T02:03:11.182Z,7.71
2018-11-28T02:03:23.527Z,7.71
2018-11-28T02:03:36.262Z,7.71
2018-11-28T02:03:48.628Z,7.71
2018-11-28T02:04:01.225Z,7.71
2018-11-28T02:04:13.712Z,7.71
2018-11-28T02:04:26.081Z,7.71
2018-11-28T02:04:38.492Z,7.71
2018-11-28T02:04:50.849Z,7.71
2018-11-28T02:05:03.318Z,7.71
2018-11-28T02:05:15.832Z,7.71
2018-11-28T02:05:28.304Z,7.71
2018-11-28T02:05:40.713Z,13.71
2018-11-28T02:05:53.055Z,13.71
2018-11-28T02:06:05.439Z,13.71
2018-11-28T02:06:17.928Z,13.71
2018-11-28T02:06:30.284Z,13.71
2018-11-28T02:06:42.647Z,13.71
2018-11-28T02:06:55.010Z,13.71
2018-11-28T02:07:07.369Z,13.71
2018-11-28T02:07:19.777Z,13.71
2018-11-28T02:07:32.117Z,13.71
2018-11-28T02:07:44.471Z,13.71
2018-11-28T02:07:56.828Z,13.71
2018-11-28T02:08:09.186Z,13.71
2018-11-28T02:08:21.545Z,13.71
2018-11-28T02:08:33.927Z,13.71
2018-11-28T02:08:46.287Z,13.71
2018-11-28T02:08:58.645Z,13.71
2018-11-28T02:09:11.006Z,13.71
2018-11-28T02:09:23.371Z,13.71
2018-11-28T02:09:35.738Z,13.71
2018-11-28T02:09:48.092Z,13.71
2018-11-28T02:10:00.458Z,13.71
2018-11-28T02:10:12.804Z,13.71
2018-11-28T02:10:25.156Z,13.71
2018-11-28T02:10:37.523Z,13.71
2018-11-28T02:10:49.883Z,13.71
2018-11-28T02:11:02.250Z,13.71
2018-11-28T02:11:14.602Z,13.71
2018-11-28T02:11:26.953Z,13.71
2018-11-28T02:11:39.442Z,13.71
2018-11-28T02:11:51.806Z,13.71
2018-11-28T02:12:04.151Z,13.71
2018-11-28T02:12:16.496Z,13.71
2018-11-28T02:12:28.874Z,13.71
2018-11-28T02:12:41.217Z,13.71
2018-11-28T02:12:53.588Z,13.71
2018-11-28T02:13:05.939Z,13.71
2018-11-28T02:13:18.310Z,13.71
2018-11-28T02:13:30.665Z,13.71
2018-11-28T02:13:43.018Z,13.71
2018-11-28T02:13:55.377Z,13.71
2018-11-28T02:14:07.730Z,13.71
2018-11-28T02:14:20.098Z,13.71
2018-11-28T02:14:32.461Z,13.71
2018-11-28T02:14:44.830Z,13.71
2018-11-28T02:14:57.197Z,13.71
2018-11-28T02:15:09.551Z,13.71
2018-11-28T02:15:21.914Z,13.71
2018-11-28T02:15:34.315Z,13.71
2018-11-28T02:15:46.833Z,12.16
2018-11-28T02:15:59.184Z,12.16
2018-11-28T02:16:11.547Z,12.16
2018-11-28T02:16:23.891Z,12.16
2018-11-28T02:16:36.253Z,12.16
2018-11-28T02:16:48.928Z,12.16
2018-11-28T02:17:01.281Z,12.16
2018-11-28T02:17:13.626Z,12.16
2018-11-28T02:17:25.981Z,12.16
2018-11-28T02:17:38.337Z,12.16
2018-11-28T02:17:50.768Z,12.16
2018-11-28T02:18:03.179Z,12.16
2018-11-28T02:18:15.525Z,12.16
2018-11-28T02:18:27.903Z,12.16
2018-11-28T02:18:40.248Z,12.16
2018-11-28T02:18:52.619Z,12.16
2018-11-28T02:19:04.963Z,12.16
2018-11-28T02:19:17.326Z,12.16
2018-11-28T02:19:29.674Z,12.16
2018-11-28T02:19:42.086Z,12.16
2018-11-28T02:19:54.455Z,12.16
2018-11-28T02:20:06.810Z,12.16
2018-11-28T02:20:19.179Z,12.16
2018-11-28T02:20:31.690Z,12.16
2018-11-28T02:20:44.054Z,12.16
2018-11-28T02:20:56.406Z,12.16
2018-11-28T02:21:08.790Z,12.16
2018-11-28T02:21:21.174Z,12.16
2018-11-28T02:21:33.532Z,12.16
2018-11-28T02:21:45.884Z,12.16
2018-11-28T02:21:58.243Z,12.16
2018-11-28T02:22:10.645Z,12.16
2018-11-28T02:22:23.183Z,12.16
2018-11-28T02:22:35.571Z,12.16
2018-11-28T02:22:47.956Z,12.16
2018-11-28T02:23:00.330Z,12.16
2018-11-28T02:23:13.836Z,12.16
2018-11-28T02:23:26.191Z,12.16
2018-11-28T02:23:38.579Z,12.16
2018-11-28T02:23:50.944Z,12.16
2018-11-28T02:24:03.291Z,12.16
2018-11-28T02:24:15.669Z,12.16
2018-11-28T02:24:28.063Z,12.16
2018-11-28T02:24:40.599Z,12.16
2018-11-28T02:24:52.947Z,12.16
2018-11-28T02:25:05.349Z,12.16
2018-11-28T02:25:17.712Z,12.16
2018-11-28T02:25:30.063Z,12.16
2018-11-28T02:25:42.425Z,9.7
2018-11-28T02:25:54.889Z,9.7
2018-11-28T02:26:07.250Z,9.7
2018-11-28T02:26:19.643Z,9.7
2018-11-28T02:26:32.030Z,9.7
2018-11-28T02:26:44.387Z,9.7
2018-11-28T02:26:56.752Z,9.7
2018-11-28T02:27:09.095Z,9.7
2018-11-28T02:27:21.517Z,9.7
2018-11-28T02:27:33.894Z,9.7
2018-11-28T02:27:46.296Z,9.7
2018-11-28T02:27:58.664Z,9.7
2018-11-28T02:28:11.026Z,9.7
2018-11-28T02:28:23.374Z,9.7
2018-11-28T02:28:35.735Z,9.7
2018-11-28T02:28:48.084Z,9.7
2018-11-28T02:29:00.428Z,9.7
2018-11-28T02:29:12.790Z,9.7
2018-11-28T02:29:25.563Z,9.7
2018-11-28T02:29:37.934Z,9.7
2018-11-28T02:29:50.290Z,9.7
2018-11-28T02:30:02.659Z,9.7
2018-11-28T02:30:15.183Z,9.7
2018-11-28T02:30:27.691Z,9.7
2018-11-28T02:30:40.073Z,9.7
2018-11-28T02:30:52.611Z,9.7
2018-11-28T02:31:04.967Z,9.7
2018-11-28T02:31:17.396Z,9.7
2018-11-28T02:31:29.802Z,9.7
2018-11-28T02:31:42.240Z,9.7
2018-11-28T02:31:54.619Z,9.7
2018-11-28T02:32:07.056Z,9.7
2018-11-28T02:32:19.437Z,9.7
2018-11-28T02:32:31.794Z,9.7
2018-11-28T02:32:44.212Z,9.7
2018-11-28T02:32:56.685Z,9.7
2018-11-28T02:33:09.062Z,9.7
2018-11-28T02:33:21.467Z,9.7
2018-11-28T02:33:33.890Z,9.7
2018-11-28T02:33:46.321Z,9.7
2018-11-28T02:33:58.706Z,9.7
2018-11-28T02:34:11.163Z,9.7
2018-11-28T02:34:23.533Z,9.7
2018-11-28T02:34:35.901Z,9.7
2018-11-28T02:34:48.258Z,9.7
2018-11-28T02:35:00.679Z,9.7
2018-11-28T02:35:13.243Z,9.7
2018-11-28T02:35:25.676Z,9.7
2018-11-28T02:35:38.050Z,15.02
2018-11-28T02:35:50.423Z,15.02
2018-11-28T02:36:02.795Z,15.02
2018-11-28T02:36:15.192Z,15.02
2018-11-28T02:36:27.588Z,15.02
2018-11-28T02:36:39.962Z,15.02
2018-11-28T02:36:52.346Z,15.02
2018-11-28T02:37:04.727Z,15.02
2018-11-28T02:37:17.136Z,15.02
2018-11-28T02:37:29.511Z,15.02
2018-11-28T02:37:41.950Z,15.02
2018-11-28T02:37:54.367Z,15.02
2018-11-28T02:38:06.739Z,15.02
2018-11-28T02:38:19.141Z,15.02
2018-11-28T02:38:31.536Z,15.02
2018-11-28T02:38:43.910Z,15.02
2018-11-28T02:38:56.278Z,15.02
2018-11-28T02:39:08.674Z,15.02
2018-11-28T02:39:21.044Z,15.02
2018-11-28T02:39:33.418Z,15.02
2018-11-28T02:39:45.805Z,15.02
2018-11-28T02:39:58.178Z,15.02
2018-11-28T02:40:10.577Z,15.02
2018-11-28T02:40:23.057Z,15.02
2018-11-28T02:40:35.444Z,15.02
2018-11-28T02:40:47.816Z,15.02
2018-11-28T02:41:00.218Z,15.02
2018-11-28T02:41:12.848Z,15.02
2018-11-28T02:41:25.216Z,15.02
2018-11-28T02:41:37.639Z,15.02
2018-11-28T02:41:50.206Z,15.02
2018-11-28T02:42:02.755Z,15.02
2018-11-28T02:42:15.119Z,15.02
2018-11-28T02:42:27.495Z,15.02
2018-11-28T02:42:39.944Z,15.02
2018-11-28T02:42:52.394Z,15.02
2018-11-28T02:43:04.781Z,15.02
2018-11-28T02:43:17.253Z,15.02
2018-11-28T02:43:29.620Z,15.02
2018-11-28T02:43:42.000Z,15.02
2018-11-28T02:43:54.377Z,15.02
2018-11-28T02:44:06.897Z,15.02
2018-11-28T02:44:19.449Z,15.02
2018-11-28T02:44:31.833Z,15.02
2018-11-28T02:44:44.217Z,15.02
2018-11-28T02:44:56.609Z,15.02